sensor_id;sensor_type;location;lat;lon;timestamp;temperature;humidity
20598;DHT22;10457;48.770;11.446;2023-03-03T00:02:21;3.70;82.30
20598;DHT22;10457;48.770;11.446;2023-03-03T00:07:44;3.70;82.40
20598;DHT22;10457;48.770;11.446;2023-03-03T00:13:12;3.60;83.30
20598;DHT22;10457;48.770;11.446;2023-03-03T00:18:36;3.30;85.50
20598;DHT22;10457;48.770;11.446;2023-03-03T00:24:14;3.20;85.90
20598;DHT22;10457;48.770;11.446;2023-03-03T00:29:40;3.10;86.90
20598;DHT22;10457;48.770;11.446;2023-03-03T00:35:22;3.00;87.30
20598;DHT22;10457;48.770;11.446;2023-03-03T00:40:46;3.00;87.80
20598;DHT22;10457;48.770;11.446;2023-03-03T00:46:09;2.90;88.10
20598;DHT22;10457;48.770;11.446;2023-03-03T00:51:36;2.80;88.80
20598;DHT22;10457;48.770;11.446;2023-03-03T00:56:57;2.90;88.10
20598;DHT22;10457;48.770;11.446;2023-03-03T01:02:20;2.90;88.10
20598;DHT22;10457;48.770;11.446;2023-03-03T01:07:42;2.80;88.70
20598;DHT22;10457;48.770;11.446;2023-03-03T01:13:04;2.80;88.80
20598;DHT22;10457;48.770;11.446;2023-03-03T01:18:28;2.60;89.90
20598;DHT22;10457;48.770;11.446;2023-03-03T01:23:50;2.40;91.50
20598;DHT22;10457;48.770;11.446;2023-03-03T01:29:12;2.40;91.00
20598;DHT22;10457;48.770;11.446;2023-03-03T01:34:35;2.30;92.50
20598;DHT22;10457;48.770;11.446;2023-03-03T01:39:56;2.00;94.00
20598;DHT22;10457;48.770;11.446;2023-03-03T01:45:20;2.00;96.80
20598;DHT22;10457;48.770;11.446;2023-03-03T01:50:48;2.00;95.10
20598;DHT22;10457;48.770;11.446;2023-03-03T01:56:11;2.10;95.50
20598;DHT22;10457;48.770;11.446;2023-03-03T02:01:33;2.00;95.50
20598;DHT22;10457;48.770;11.446;2023-03-03T02:07:00;1.90;96.30
20598;DHT22;10457;48.770;11.446;2023-03-03T02:12:31;1.80;97.90
20598;DHT22;10457;48.770;11.446;2023-03-03T02:17:56;1.60;99.60
20598;DHT22;10457;48.770;11.446;2023-03-03T02:23:23;1.60;99.90
20598;DHT22;10457;48.770;11.446;2023-03-03T02:28:49;1.60;99.50
20598;DHT22;10457;48.770;11.446;2023-03-03T02:34:11;1.50;98.70
20598;DHT22;10457;48.770;11.446;2023-03-03T02:39:34;1.40;99.90
20598;DHT22;10457;48.770;11.446;2023-03-03T02:44:56;1.40;99.90
20598;DHT22;10457;48.770;11.446;2023-03-03T02:50:18;1.40;99.90
20598;DHT22;10457;48.770;11.446;2023-03-03T02:55:42;1.40;99.90
20598;DHT22;10457;48.770;11.446;2023-03-03T03:01:05;1.40;99.90
20598;DHT22;10457;48.770;11.446;2023-03-03T03:06:27;1.50;99.90
20598;DHT22;10457;48.770;11.446;2023-03-03T03:11:49;1.60;99.90
20598;DHT22;10457;48.770;11.446;2023-03-03T03:17:15;1.80;99.80
20598;DHT22;10457;48.770;11.446;2023-03-03T03:22:38;1.90;98.60
20598;DHT22;10457;48.770;11.446;2023-03-03T03:28:02;2.10;95.80
20598;DHT22;10457;48.770;11.446;2023-03-03T03:33:25;2.00;95.00
20598;DHT22;10457;48.770;11.446;2023-03-03T03:38:48;1.90;96.90
20598;DHT22;10457;48.770;11.446;2023-03-03T03:44:11;2.00;98.20
20598;DHT22;10457;48.770;11.446;2023-03-03T03:49:34;2.20;97.10
20598;DHT22;10457;48.770;11.446;2023-03-03T03:54:56;2.30;94.60
20598;DHT22;10457;48.770;11.446;2023-03-03T04:00:18;2.30;94.40
20598;DHT22;10457;48.770;11.446;2023-03-03T04:05:48;2.30;93.20
20598;DHT22;10457;48.770;11.446;2023-03-03T04:11:13;2.40;90.90
20598;DHT22;10457;48.770;11.446;2023-03-03T04:16:35;2.40;91.70
20598;DHT22;10457;48.770;11.446;2023-03-03T04:21:58;2.20;93.60
20598;DHT22;10457;48.770;11.446;2023-03-03T04:27:19;2.20;93.00
20598;DHT22;10457;48.770;11.446;2023-03-03T04:32:41;2.20;93.30
20598;DHT22;10457;48.770;11.446;2023-03-03T04:38:06;2.20;94.30
20598;DHT22;10457;48.770;11.446;2023-03-03T04:43:29;2.30;93.30
20598;DHT22;10457;48.770;11.446;2023-03-03T04:48:51;2.20;93.70
20598;DHT22;10457;48.770;11.446;2023-03-03T04:54:14;2.20;94.70
20598;DHT22;10457;48.770;11.446;2023-03-03T04:59:36;2.30;93.00
20598;DHT22;10457;48.770;11.446;2023-03-03T05:04:58;2.10;94.80
20598;DHT22;10457;48.770;11.446;2023-03-03T05:10:20;2.20;94.10
20598;DHT22;10457;48.770;11.446;2023-03-03T05:15:42;2.20;94.90
20598;DHT22;10457;48.770;11.446;2023-03-03T05:21:04;2.20;95.90
20598;DHT22;10457;48.770;11.446;2023-03-03T05:26:27;2.10;95.50
20598;DHT22;10457;48.770;11.446;2023-03-03T05:31:49;2.10;95.30
20598;DHT22;10457;48.770;11.446;2023-03-03T05:37:10;2.20;95.20
20598;DHT22;10457;48.770;11.446;2023-03-03T05:42:33;2.30;95.40
20598;DHT22;10457;48.770;11.446;2023-03-03T05:47:54;2.30;95.20
20598;DHT22;10457;48.770;11.446;2023-03-03T05:53:16;2.60;92.40
20598;DHT22;10457;48.770;11.446;2023-03-03T05:58:39;2.50;91.80
20598;DHT22;10457;48.770;11.446;2023-03-03T06:04:01;2.50;91.80
20598;DHT22;10457;48.770;11.446;2023-03-03T06:09:23;2.50;93.00
20598;DHT22;10457;48.770;11.446;2023-03-03T06:14:46;2.50;91.90
20598;DHT22;10457;48.770;11.446;2023-03-03T06:20:09;2.60;92.30
20598;DHT22;10457;48.770;11.446;2023-03-03T06:25:31;2.60;91.60
20598;DHT22;10457;48.770;11.446;2023-03-03T06:30:55;2.70;90.90
20598;DHT22;10457;48.770;11.446;2023-03-03T06:36:17;2.60;91.20
20598;DHT22;10457;48.770;11.446;2023-03-03T06:41:38;2.70;91.60
20598;DHT22;10457;48.770;11.446;2023-03-03T06:47:01;2.80;91.20
20598;DHT22;10457;48.770;11.446;2023-03-03T06:52:24;3.00;89.40
20598;DHT22;10457;48.770;11.446;2023-03-03T06:57:46;2.90;89.80
20598;DHT22;10457;48.770;11.446;2023-03-03T07:03:14;2.90;90.30
20598;DHT22;10457;48.770;11.446;2023-03-03T07:08:36;3.00;88.70
20598;DHT22;10457;48.770;11.446;2023-03-03T07:14:01;3.30;87.70
20598;DHT22;10457;48.770;11.446;2023-03-03T07:19:29;3.30;87.30
20598;DHT22;10457;48.770;11.446;2023-03-03T07:24:53;3.50;88.10
20598;DHT22;10457;48.770;11.446;2023-03-03T07:30:24;3.80;85.30
20598;DHT22;10457;48.770;11.446;2023-03-03T07:35:48;4.00;82.90
20598;DHT22;10457;48.770;11.446;2023-03-03T07:41:13;4.20;82.40
20598;DHT22;10457;48.770;11.446;2023-03-03T07:46:42;4.40;81.80
20598;DHT22;10457;48.770;11.446;2023-03-03T07:52:25;4.80;77.90
20598;DHT22;10457;48.770;11.446;2023-03-03T07:57:53;5.50;74.20
20598;DHT22;10457;48.770;11.446;2023-03-03T08:03:16;6.00;72.60
20598;DHT22;10457;48.770;11.446;2023-03-03T08:08:40;6.50;67.60
20598;DHT22;10457;48.770;11.446;2023-03-03T08:14:09;7.00;62.10
20598;DHT22;10457;48.770;11.446;2023-03-03T08:19:31;7.20;56.80
20598;DHT22;10457;48.770;11.446;2023-03-03T08:24:55;8.30;54.40
20598;DHT22;10457;48.770;11.446;2023-03-03T08:30:17;9.40;52.60
20598;DHT22;10457;48.770;11.446;2023-03-03T08:35:38;9.40;51.80
20598;DHT22;10457;48.770;11.446;2023-03-03T08:41:02;9.80;50.50
20598;DHT22;10457;48.770;11.446;2023-03-03T08:46:24;11.70;45.90
20598;DHT22;10457;48.770;11.446;2023-03-03T08:51:45;12.60;42.80
20598;DHT22;10457;48.770;11.446;2023-03-03T08:57:08;13.80;41.60
20598;DHT22;10457;48.770;11.446;2023-03-03T09:02:30;15.00;37.40
20598;DHT22;10457;48.770;11.446;2023-03-03T09:07:53;15.90;37.50
20598;DHT22;10457;48.770;11.446;2023-03-03T09:13:17;16.00;37.00
20598;DHT22;10457;48.770;11.446;2023-03-03T09:18:40;15.50;37.10
20598;DHT22;10457;48.770;11.446;2023-03-03T09:24:03;16.30;36.00
20598;DHT22;10457;48.770;11.446;2023-03-03T09:29:28;16.80;34.70
20598;DHT22;10457;48.770;11.446;2023-03-03T09:34:50;16.20;34.10
20598;DHT22;10457;48.770;11.446;2023-03-03T09:40:30;16.30;35.40
20598;DHT22;10457;48.770;11.446;2023-03-03T09:46:07;15.10;37.50
20598;DHT22;10457;48.770;11.446;2023-03-03T09:58:13;15.90;35.80
20598;DHT22;10457;48.770;11.446;2023-03-03T10:04:01;18.50;30.50
20598;DHT22;10457;48.770;11.446;2023-03-03T10:09:54;17.80;32.50
20598;DHT22;10457;48.770;11.446;2023-03-03T10:15:38;18.70;32.10
20598;DHT22;10457;48.770;11.446;2023-03-03T10:21:11;18.60;30.70
20598;DHT22;10457;48.770;11.446;2023-03-03T10:26:46;19.50;30.90
20598;DHT22;10457;48.770;11.446;2023-03-03T10:32:32;19.10;30.50
20598;DHT22;10457;48.770;11.446;2023-03-03T10:38:18;19.60;30.30
20598;DHT22;10457;48.770;11.446;2023-03-03T10:44:14;19.30;29.10
20598;DHT22;10457;48.770;11.446;2023-03-03T10:49:55;19.00;29.80
20598;DHT22;10457;48.770;11.446;2023-03-03T10:55:34;20.80;28.80
20598;DHT22;10457;48.770;11.446;2023-03-03T11:01:06;21.90;24.60
20598;DHT22;10457;48.770;11.446;2023-03-03T11:06:39;22.00;25.00
20598;DHT22;10457;48.770;11.446;2023-03-03T11:12:20;19.50;28.00
20598;DHT22;10457;48.770;11.446;2023-03-03T11:17:57;20.10;27.90
20598;DHT22;10457;48.770;11.446;2023-03-03T11:23:50;22.30;24.50
20598;DHT22;10457;48.770;11.446;2023-03-03T11:29:32;23.00;24.50
20598;DHT22;10457;48.770;11.446;2023-03-03T11:35:17;23.00;24.00
20598;DHT22;10457;48.770;11.446;2023-03-03T11:40:47;23.90;22.20
20598;DHT22;10457;48.770;11.446;2023-03-03T11:46:15;21.70;24.90
20598;DHT22;10457;48.770;11.446;2023-03-03T11:51:49;22.30;27.10
20598;DHT22;10457;48.770;11.446;2023-03-03T11:57:20;24.80;23.50
20598;DHT22;10457;48.770;11.446;2023-03-03T12:02:57;25.70;21.10
20598;DHT22;10457;48.770;11.446;2023-03-03T12:08:49;24.30;22.60
20598;DHT22;10457;48.770;11.446;2023-03-03T12:14:39;22.40;25.00
20598;DHT22;10457;48.770;11.446;2023-03-03T12:20:14;23.90;24.60
20598;DHT22;10457;48.770;11.446;2023-03-03T12:25:40;25.00;23.90
20598;DHT22;10457;48.770;11.446;2023-03-03T12:31:16;24.40;22.80
20598;DHT22;10457;48.770;11.446;2023-03-03T12:37:03;23.20;23.40
20598;DHT22;10457;48.770;11.446;2023-03-03T12:42:48;23.40;25.40
20598;DHT22;10457;48.770;11.446;2023-03-03T12:48:20;23.70;24.60
20598;DHT22;10457;48.770;11.446;2023-03-03T12:54:01;25.10;22.90
20598;DHT22;10457;48.770;11.446;2023-03-03T12:59:54;23.90;24.40
20598;DHT22;10457;48.770;11.446;2023-03-03T13:05:28;24.80;22.50
20598;DHT22;10457;48.770;11.446;2023-03-03T13:11:00;25.30;20.00
20598;DHT22;10457;48.770;11.446;2023-03-03T13:16:44;24.70;22.10
20598;DHT22;10457;48.770;11.446;2023-03-03T13:22:11;26.20;19.90
20598;DHT22;10457;48.770;11.446;2023-03-03T13:27:39;25.60;21.30
20598;DHT22;10457;48.770;11.446;2023-03-03T13:33:09;25.00;20.80
20598;DHT22;10457;48.770;11.446;2023-03-03T13:38:35;26.20;21.20
20598;DHT22;10457;48.770;11.446;2023-03-03T13:44:05;25.40;19.70
20598;DHT22;10457;48.770;11.446;2023-03-03T13:49:49;25.80;20.80
20598;DHT22;10457;48.770;11.446;2023-03-03T13:55:22;26.40;19.10
20598;DHT22;10457;48.770;11.446;2023-03-03T14:00:58;26.90;19.30
20598;DHT22;10457;48.770;11.446;2023-03-03T14:06:23;25.00;22.00
20598;DHT22;10457;48.770;11.446;2023-03-03T14:11:53;22.80;23.70
20598;DHT22;10457;48.770;11.446;2023-03-03T14:17:28;22.10;25.20
20598;DHT22;10457;48.770;11.446;2023-03-03T14:22:57;19.40;28.20
20598;DHT22;10457;48.770;11.446;2023-03-03T14:28:21;17.60;31.00
20598;DHT22;10457;48.770;11.446;2023-03-03T14:33:55;16.90;33.70
20598;DHT22;10457;48.770;11.446;2023-03-03T14:39:31;16.30;34.90
20598;DHT22;10457;48.770;11.446;2023-03-03T14:44:55;15.60;35.60
20598;DHT22;10457;48.770;11.446;2023-03-03T14:50:34;15.40;36.20
20598;DHT22;10457;48.770;11.446;2023-03-03T14:56:21;15.10;36.70
20598;DHT22;10457;48.770;11.446;2023-03-03T15:01:44;14.70;37.60
20598;DHT22;10457;48.770;11.446;2023-03-03T15:07:20;14.50;37.50
20598;DHT22;10457;48.770;11.446;2023-03-03T15:12:48;14.10;39.70
20598;DHT22;10457;48.770;11.446;2023-03-03T15:18:11;14.00;39.10
20598;DHT22;10457;48.770;11.446;2023-03-03T15:23:50;13.70;39.80
20598;DHT22;10457;48.770;11.446;2023-03-03T15:29:22;13.40;39.80
20598;DHT22;10457;48.770;11.446;2023-03-03T15:34:52;13.40;39.90
20598;DHT22;10457;48.770;11.446;2023-03-03T15:40:26;13.20;39.20
20598;DHT22;10457;48.770;11.446;2023-03-03T15:45:51;12.80;41.60
20598;DHT22;10457;48.770;11.446;2023-03-03T15:51:25;12.30;42.20
20598;DHT22;10457;48.770;11.446;2023-03-03T15:56:59;12.20;42.90
20598;DHT22;10457;48.770;11.446;2023-03-03T16:02:30;12.10;44.30
20598;DHT22;10457;48.770;11.446;2023-03-03T16:08:03;12.20;42.30
20598;DHT22;10457;48.770;11.446;2023-03-03T16:13:43;11.80;45.50
20598;DHT22;10457;48.770;11.446;2023-03-03T16:19:19;11.30;47.80
20598;DHT22;10457;48.770;11.446;2023-03-03T16:24:59;11.00;48.70
20598;DHT22;10457;48.770;11.446;2023-03-03T16:30:31;10.70;50.10
20598;DHT22;10457;48.770;11.446;2023-03-03T16:36:01;10.50;51.10
20598;DHT22;10457;48.770;11.446;2023-03-03T16:41:31;10.30;51.30
20598;DHT22;10457;48.770;11.446;2023-03-03T16:47:11;10.00;52.10
20598;DHT22;10457;48.770;11.446;2023-03-03T16:52:42;9.90;52.70
20598;DHT22;10457;48.770;11.446;2023-03-03T16:58:15;9.80;53.40
20598;DHT22;10457;48.770;11.446;2023-03-03T17:04:00;9.60;53.70
20598;DHT22;10457;48.770;11.446;2023-03-03T17:09:35;9.40;54.60
20598;DHT22;10457;48.770;11.446;2023-03-03T17:15:17;9.40;55.10
20598;DHT22;10457;48.770;11.446;2023-03-03T17:20:47;9.30;55.60
20598;DHT22;10457;48.770;11.446;2023-03-03T17:32:05;9.00;57.00
20598;DHT22;10457;48.770;11.446;2023-03-03T17:37:38;8.70;57.80
20598;DHT22;10457;48.770;11.446;2023-03-03T17:43:08;8.60;58.50
20598;DHT22;10457;48.770;11.446;2023-03-03T17:54:45;8.20;59.90
20598;DHT22;10457;48.770;11.446;2023-03-03T18:00:30;8.00;60.80
20598;DHT22;10457;48.770;11.446;2023-03-03T18:06:26;7.80;61.60
20598;DHT22;10457;48.770;11.446;2023-03-03T18:12:21;7.80;57.90
20598;DHT22;10457;48.770;11.446;2023-03-03T18:18:05;7.80;56.80
20598;DHT22;10457;48.770;11.446;2023-03-03T18:23:38;7.70;57.60
20598;DHT22;10457;48.770;11.446;2023-03-03T18:29:26;7.60;57.10
20598;DHT22;10457;48.770;11.446;2023-03-03T18:34:48;7.40;56.50
20598;DHT22;10457;48.770;11.446;2023-03-03T18:40:49;7.40;56.80
20598;DHT22;10457;48.770;11.446;2023-03-03T18:46:47;7.30;56.60
20598;DHT22;10457;48.770;11.446;2023-03-03T18:52:16;7.30;56.30
20598;DHT22;10457;48.770;11.446;2023-03-03T18:57:41;7.00;56.50
20598;DHT22;10457;48.770;11.446;2023-03-03T19:03:30;7.00;56.60
20598;DHT22;10457;48.770;11.446;2023-03-03T19:08:55;6.80;57.10
20598;DHT22;10457;48.770;11.446;2023-03-03T19:14:28;6.70;57.10
20598;DHT22;10457;48.770;11.446;2023-03-03T19:20:00;6.60;57.30
20598;DHT22;10457;48.770;11.446;2023-03-03T19:25:28;6.60;57.50
20598;DHT22;10457;48.770;11.446;2023-03-03T19:30:55;6.50;57.90
20598;DHT22;10457;48.770;11.446;2023-03-03T19:36:26;6.40;58.30
20598;DHT22;10457;48.770;11.446;2023-03-03T19:42:04;6.20;58.50
20598;DHT22;10457;48.770;11.446;2023-03-03T19:47:35;6.10;59.20
20598;DHT22;10457;48.770;11.446;2023-03-03T19:53:06;6.00;59.60
20598;DHT22;10457;48.770;11.446;2023-03-03T19:58:42;6.00;59.60
20598;DHT22;10457;48.770;11.446;2023-03-03T20:04:18;6.00;59.60
20598;DHT22;10457;48.770;11.446;2023-03-03T20:10:05;5.90;60.60
20598;DHT22;10457;48.770;11.446;2023-03-03T20:15:41;5.80;59.90
20598;DHT22;10457;48.770;11.446;2023-03-03T20:21:15;5.80;60.10
20598;DHT22;10457;48.770;11.446;2023-03-03T20:26:53;5.70;60.60
20598;DHT22;10457;48.770;11.446;2023-03-03T20:32:25;5.60;61.20
20598;DHT22;10457;48.770;11.446;2023-03-03T20:37:55;5.50;61.80
20598;DHT22;10457;48.770;11.446;2023-03-03T20:43:34;5.30;62.40
20598;DHT22;10457;48.770;11.446;2023-03-03T20:49:26;5.20;62.90
20598;DHT22;10457;48.770;11.446;2023-03-03T20:54:58;5.10;63.70
20598;DHT22;10457;48.770;11.446;2023-03-03T21:00:30;5.00;64.10
20598;DHT22;10457;48.770;11.446;2023-03-03T21:05:57;5.00;64.70
20598;DHT22;10457;48.770;11.446;2023-03-03T21:11:22;4.90;65.00
20598;DHT22;10457;48.770;11.446;2023-03-03T21:16:46;4.60;66.20
20598;DHT22;10457;48.770;11.446;2023-03-03T21:22:09;4.50;66.90
20598;DHT22;10457;48.770;11.446;2023-03-03T21:27:31;4.40;68.00
20598;DHT22;10457;48.770;11.446;2023-03-03T21:32:55;4.30;68.30
20598;DHT22;10457;48.770;11.446;2023-03-03T21:38:31;4.10;68.50
20598;DHT22;10457;48.770;11.446;2023-03-03T21:43:53;4.00;69.10
20598;DHT22;10457;48.770;11.446;2023-03-03T21:49:16;3.90;69.70
20598;DHT22;10457;48.770;11.446;2023-03-03T21:54:37;3.80;70.00
20598;DHT22;10457;48.770;11.446;2023-03-03T21:59:59;3.90;70.10
20598;DHT22;10457;48.770;11.446;2023-03-03T22:05:22;3.60;70.10
20598;DHT22;10457;48.770;11.446;2023-03-03T22:10:44;3.70;70.50
20598;DHT22;10457;48.770;11.446;2023-03-03T22:16:09;3.60;71.10
20598;DHT22;10457;48.770;11.446;2023-03-03T22:21:32;3.40;71.50
20598;DHT22;10457;48.770;11.446;2023-03-03T22:26:54;3.30;71.30
20598;DHT22;10457;48.770;11.446;2023-03-03T22:32:16;3.20;72.30
20598;DHT22;10457;48.770;11.446;2023-03-03T22:37:38;3.20;71.50
20598;DHT22;10457;48.770;11.446;2023-03-03T22:43:00;3.20;71.50
20598;DHT22;10457;48.770;11.446;2023-03-03T22:48:22;3.10;72.70
20598;DHT22;10457;48.770;11.446;2023-03-03T22:53:45;2.90;73.20
20598;DHT22;10457;48.770;11.446;2023-03-03T22:59:06;2.90;74.00
20598;DHT22;10457;48.770;11.446;2023-03-03T23:04:28;2.70;73.70
20598;DHT22;10457;48.770;11.446;2023-03-03T23:09:53;2.70;73.60
20598;DHT22;10457;48.770;11.446;2023-03-03T23:15:15;2.70;72.50
20598;DHT22;10457;48.770;11.446;2023-03-03T23:20:36;2.80;71.60
20598;DHT22;10457;48.770;11.446;2023-03-03T23:25:59;2.80;71.80
20598;DHT22;10457;48.770;11.446;2023-03-03T23:31:21;2.90;70.60
20598;DHT22;10457;48.770;11.446;2023-03-03T23:36:44;2.90;70.20
20598;DHT22;10457;48.770;11.446;2023-03-03T23:42:07;2.80;70.50
20598;DHT22;10457;48.770;11.446;2023-03-03T23:47:28;2.80;70.30
20598;DHT22;10457;48.770;11.446;2023-03-03T23:52:50;2.70;70.40
20598;DHT22;10457;48.770;11.446;2023-03-03T23:58:13;2.70;70.40
